Time;durP1;ratioP1;P1;durP2;ratioP2;P2;SDS_P1;SDS_P2;PMS_P1;PMS_P2;Temp;Humidity;BMP_temperature;BMP_pressure;BME280_temperature;BME280_humidity;BME280_pressure;Samples;Min_cycle;Max_cycle;Signal;HPM_P1;HPM_P2
2022/12/08 00:02:06;;;;;;;47.42;26.20;;;5.30;86.10;;;;;;5037575;28;20386;-77
2022/12/08 00:09:20;;;;;;;40.83;26.17;;;5.30;86.00;;;;;;5036005;28;20516;-78
2022/12/08 00:10:01;;;;;;;41.73;25.53;;;5.20;87.10;;;;;;5038734;28;20891;-78
2022/12/08 00:12:26;;;;;;;41.60;25.40;;;5.30;86.40;;;;;;5039762;28;20474;-77
2022/12/08 00:14:53;;;;;;;39.77;27.00;;;5.30;86.30;;;;;;5045274;28;20743;-77
2022/12/08 00:17:19;;;;;;;40.05;25.98;;;5.20;87.20;;;;;;5043683;28;20470;-76
2022/12/08 00:19:45;;;;;;;45.40;27.00;;;5.10;89.20;;;;;;5042384;28;20461;-77
2022/12/08 00:22:11;;;;;;;41.70;27.40;;;5.10;88.60;;;;;;5055894;28;20395;-77
2022/12/08 00:24:39;;;;;;;42.73;26.90;;;5.10;90.40;;;;;;5055885;28;20500;-78
2022/12/08 00:27:06;;;;;;;41.20;27.15;;;5.00;90.60;;;;;;5051153;28;20415;-77
2022/12/08 00:29:31;;;;;;;36.22;26.02;;;5.10;89.80;;;;;;5037512;28;20398;-76
2022/12/08 00:31:57;;;;;;;43.47;26.63;;;5.10;89.60;;;;;;5036503;28;20387;-76
2022/12/08 00:34:23;;;;;;;39.67;25.60;;;5.00;90.00;;;;;;5035166;28;20836;-77
2022/12/08 00:36:48;;;;;;;43.40;26.63;;;5.00;90.90;;;;;;5036426;28;20390;-76
2022/12/08 00:39:15;;;;;;;40.73;26.47;;;4.90;92.00;;;;;;5038130;28;20406;-76
2022/12/08 00:44:25;;;;;;;44.33;27.08;;;5.10;90.60;;;;;;5045742;28;20385;-77
2022/12/08 00:46:50;;;;;;;39.97;25.37;;;5.00;91.50;;;;;;5043997;28;20406;-76
2022/12/08 00:49:17;;;;;;;41.53;27.00;;;5.10;89.70;;;;;;5038254;28;20421;-77
2022/12/08 00:51:43;;;;;;;35.92;25.65;;;5.00;90.70;;;;;;5035608;28;20943;-77
2022/12/08 00:54:09;;;;;;;40.13;26.08;;;5.00;90.30;;;;;;5037720;28;20386;-76
2022/12/08 00:56:35;;;;;;;35.97;23.63;;;5.00;90.60;;;;;;5035691;28;20478;-77
2022/12/08 00:59:03;;;;;;;35.90;23.10;;;5.10;90.20;;;;;;5035926;28;20391;-76
2022/12/08 01:01:29;;;;;;;36.78;22.67;;;5.00;89.10;;;;;;5036894;28;20395;-76
2022/12/08 01:03:55;;;;;;;33.45;23.02;;;5.10;89.90;;;;;;5038710;28;20399;-76
2022/12/08 01:06:20;;;;;;;32.50;22.48;;;5.10;88.50;;;;;;5036112;28;20390;-77
2022/12/08 01:08:46;;;;;;;33.92;21.27;;;5.00;89.80;;;;;;5035592;28;20411;-76
2022/12/08 01:11:14;;;;;;;36.00;20.85;;;5.00;90.60;;;;;;5036098;28;20383;-76
2022/12/08 01:13:40;;;;;;;32.38;20.83;;;5.10;88.20;;;;;;5036685;28;20373;-77
2022/12/08 01:16:06;;;;;;;32.30;20.80;;;5.00;88.70;;;;;;5043339;28;20372;-75
2022/12/08 01:18:33;;;;;;;33.75;21.08;;;5.00;89.40;;;;;;5053819;28;20413;-77
2022/12/08 01:21:06;;;;;;;32.92;21.45;;;5.10;90.40;;;;;;5039754;28;20399;-74
2022/12/08 01:23:33;;;;;;;39.83;21.25;;;5.10;89.60;;;;;;5055944;28;20432;-76
2022/12/08 01:26:06;;;;;;;33.10;21.00;;;5.10;90.10;;;;;;5050510;28;20474;-75
2022/12/08 01:28:33;;;;;;;32.83;21.10;;;5.20;88.90;;;;;;5038179;28;20406;-75
2022/12/08 01:30:59;;;;;;;31.95;20.83;;;5.30;87.20;;;;;;5036560;28;20863;-75
2022/12/08 01:33:26;;;;;;;29.90;21.00;;;5.40;85.20;;;;;;5036671;28;20790;-77
2022/12/08 01:35:52;;;;;;;34.03;21.17;;;5.40;84.90;;;;;;5033434;28;20891;-76
2022/12/08 01:38:18;;;;;;;35.75;22.63;;;5.30;86.20;;;;;;5034371;28;20395;-76
2022/12/08 01:40:44;;;;;;;30.58;20.48;;;5.40;85.70;;;;;;5032801;28;20387;-76
2022/12/08 01:43:16;;;;;;;32.67;21.40;;;5.40;83.90;;;;;;5035047;28;20442;-77
2022/12/08 01:45:42;;;;;;;34.17;21.95;;;5.40;84.60;;;;;;5034338;28;21064;-77
2022/12/08 01:48:12;;;;;;;36.70;22.23;;;5.40;85.30;;;;;;5033545;28;20410;-77
2022/12/08 01:50:41;;;;;;;34.42;21.80;;;5.50;84.50;;;;;;5033662;28;20379;-76
2022/12/08 01:53:21;;;;;;;37.58;23.25;;;5.50;83.00;;;;;;5033070;28;20390;-75
2022/12/08 01:55:51;;;;;;;34.47;23.05;;;5.50;81.80;;;;;;5033263;28;20788;-76
2022/12/08 01:58:19;;;;;;;40.78;23.15;;;5.50;81.10;;;;;;5033892;28;20442;-76
2022/12/08 02:00:46;;;;;;;38.63;23.77;;;5.50;82.10;;;;;;5033252;28;20407;-76
2022/12/08 02:03:22;;;;;;;38.63;24.10;;;5.50;83.40;;;;;;5031977;28;20444;-76
2022/12/08 02:05:48;;;;;;;40.50;24.88;;;5.50;82.20;;;;;;5032799;28;20772;-76
2022/12/08 02:08:14;;;;;;;42.27;24.40;;;5.60;81.70;;;;;;5032954;28;20493;-76
2022/12/08 02:10:41;;;;;;;37.20;23.70;;;5.60;79.80;;;;;;5032034;28;20524;-77
2022/12/08 02:13:11;;;;;;;36.80;24.60;;;5.70;79.70;;;;;;5027823;28;20389;-77
2022/12/08 02:16:02;;;;;;;38.47;24.67;;;5.70;79.00;;;;;;5031823;28;20543;-76
2022/12/08 02:18:46;;;;;;;40.28;24.90;;;5.70;79.60;;;;;;5030604;28;20405;-75
2022/12/08 02:21:18;;;;;;;36.90;24.42;;;5.60;80.40;;;;;;5030137;28;20909;-76
2022/12/08 02:24:19;;;;;;;35.92;23.48;;;5.70;79.20;;;;;;5032343;28;20389;-76
2022/12/08 02:26:54;;;;;;;35.15;23.63;;;5.60;79.30;;;;;;5033024;28;20462;-75
2022/12/08 02:29:28;;;;;;;37.33;23.63;;;5.60;80.40;;;;;;5032486;28;20478;-76
2022/12/08 02:32:15;;;;;;;36.63;23.97;;;5.60;80.00;;;;;;5030965;28;20382;-77
2022/12/08 02:34:52;;;;;;;36.22;22.20;;;5.60;80.00;;;;;;5036250;28;20381;-76
2022/12/08 02:37:22;;;;;;;37.10;23.13;;;5.70;77.90;;;;;;5035750;28;20383;-74
2022/12/08 02:40:12;;;;;;;39.35;23.00;;;5.70;77.40;;;;;;5040120;28;20385;-77
2022/12/08 02:42:52;;;;;;;34.63;22.92;;;5.60;78.00;;;;;;5036979;28;20387;-76
2022/12/08 02:45:32;;;;;;;38.50;21.95;;;5.70;77.30;;;;;;5038792;28;20392;-77
2022/12/08 02:47:59;;;;;;;31.17;21.20;;;5.60;76.60;;;;;;5038923;28;20493;-76
2022/12/08 02:50:25;;;;;;;34.33;21.30;;;5.70;77.20;;;;;;5040028;28;20380;-76
2022/12/08 02:52:51;;;;;;;30.55;20.90;;;5.60;77.20;;;;;;5035942;28;20441;-76
2022/12/08 02:55:20;;;;;;;32.88;20.30;;;5.60;76.70;;;;;;5032347;28;20376;-76
2022/12/08 02:58:04;;;;;;;34.47;20.80;;;5.60;75.00;;;;;;5030853;28;20437;-76
2022/12/08 03:00:52;;;;;;;34.10;21.00;;;5.60;75.70;;;;;;5030190;28;20884;-77
2022/12/08 03:06:08;;;;;;;33.40;20.40;;;5.60;77.80;;;;;;4989553;28;20466;-71
2022/12/08 03:09:17;;;;;;;31.08;21.27;;;5.60;77.00;;;;;;5022151;28;20404;-71
2022/12/08 03:11:46;;;;;;;27.75;19.13;;;5.60;77.90;;;;;;4948655;28;20932;-71
2022/12/08 03:14:15;;;;;;;30.67;19.95;;;5.60;76.20;;;;;;4990466;28;20403;-72
2022/12/08 03:16:45;;;;;;;35.80;19.27;;;5.60;75.30;;;;;;5010862;28;20427;-72
2022/12/08 03:19:44;;;;;;;31.20;19.17;;;5.70;75.20;;;;;;5010602;28;20752;-71
2022/12/08 03:22:12;;;;;;;30.25;19.45;;;5.70;75.50;;;;;;4987198;28;20407;-71
2022/12/08 03:24:41;;;;;;;31.05;20.20;;;5.60;75.50;;;;;;5009938;28;20436;-71
2022/12/08 03:27:11;;;;;;;29.50;19.38;;;5.60;76.20;;;;;;5010004;28;20803;-71
2022/12/08 03:29:37;;;;;;;28.10;19.65;;;5.70;75.00;;;;;;5009986;28;20390;-72
2022/12/08 03:32:13;;;;;;;33.47;20.20;;;5.60;75.70;;;;;;5009366;28;20400;-71
2022/12/08 03:34:42;;;;;;;28.13;18.40;;;5.70;74.80;;;;;;5010133;28;20442;-71
2022/12/08 03:37:08;;;;;;;28.20;17.83;;;5.70;73.60;;;;;;5009702;28;20880;-71
2022/12/08 03:39:34;;;;;;;29.85;19.67;;;5.60;74.60;;;;;;5009916;28;20393;-71
2022/12/08 03:41:59;;;;;;;30.67;20.23;;;5.60;75.30;;;;;;5009527;28;20388;-71
2022/12/08 03:44:25;;;;;;;28.30;19.27;;;5.60;76.50;;;;;;5010301;28;20389;-72
2022/12/08 03:46:50;;;;;;;28.97;19.40;;;5.70;74.70;;;;;;5010496;28;20453;-71
2022/12/08 03:49:16;;;;;;;28.40;19.70;;;5.60;74.60;;;;;;5010745;28;20442;-72
2022/12/08 03:51:41;;;;;;;28.17;19.87;;;5.60;75.00;;;;;;5010282;28;20388;-72
2022/12/08 03:54:07;;;;;;;26.20;18.27;;;5.70;74.10;;;;;;5010997;28;20376;-71
2022/12/08 03:56:37;;;;;;;21.80;15.73;;;5.70;73.60;;;;;;5010460;28;20388;-72
2022/12/08 03:59:05;;;;;;;19.95;14.80;;;5.60;73.60;;;;;;5010421;28;20801;-72
2022/12/08 04:01:30;;;;;;;20.60;14.30;;;5.60;71.90;;;;;;5008460;28;20884;-71
2022/12/08 04:03:56;;;;;;;20.95;14.60;;;5.60;71.60;;;;;;5010572;28;20401;-72
2022/12/08 04:06:22;;;;;;;20.65;15.98;;;5.60;72.50;;;;;;5042304;28;20936;-71
2022/12/08 04:08:48;;;;;;;20.55;15.40;;;5.60;73.70;;;;;;5012525;28;20850;-73
2022/12/08 04:11:14;;;;;;;21.80;15.02;;;5.60;74.30;;;;;;5011115;28;20395;-72
2022/12/08 04:13:40;;;;;;;20.37;14.97;;;5.60;75.00;;;;;;5010836;28;20385;-71
2022/12/08 04:16:07;;;;;;;20.80;14.88;;;5.50;74.80;;;;;;5010426;28;20850;-70
2022/12/08 04:18:34;;;;;;;25.30;15.48;;;5.60;74.00;;;;;;5008854;28;20439;-71
2022/12/08 04:21:00;;;;;;;20.70;14.90;;;5.60;75.80;;;;;;5009501;28;20874;-71
2022/12/08 04:23:25;;;;;;;20.70;13.88;;;5.60;74.80;;;;;;5041650;28;20603;-72
2022/12/08 04:25:52;;;;;;;19.33;14.20;;;5.60;74.40;;;;;;5010566;28;20509;-72
2022/12/08 04:28:18;;;;;;;20.88;14.38;;;5.60;75.60;;;;;;5009873;28;20423;-72
2022/12/08 04:30:43;;;;;;;19.43;14.53;;;5.60;76.60;;;;;;5010848;28;20377;-71
2022/12/08 04:33:09;;;;;;;22.97;14.13;;;5.60;76.10;;;;;;5044693;28;20395;-71
2022/12/08 04:35:35;;;;;;;18.10;13.02;;;5.70;75.60;;;;;;5013427;28;20883;-71
2022/12/08 04:38:00;;;;;;;20.77;12.80;;;5.70;74.30;;;;;;5015201;28;20393;-72
2022/12/08 04:40:26;;;;;;;26.60;13.60;;;5.70;75.30;;;;;;5018120;28;20388;-73
2022/12/08 04:42:52;;;;;;;17.17;13.17;;;5.70;76.60;;;;;;5048564;28;20456;-72
2022/12/08 04:45:17;;;;;;;20.90;14.33;;;5.70;76.30;;;;;;5016745;28;20384;-72
2022/12/08 04:47:43;;;;;;;24.17;14.20;;;5.70;76.70;;;;;;5017466;28;20932;-72
2022/12/08 04:50:09;;;;;;;19.40;14.85;;;5.60;78.30;;;;;;5015751;28;20904;-72
2022/12/08 04:52:35;;;;;;;22.17;14.57;;;5.60;78.30;;;;;;5012993;28;20439;-72
2022/12/08 04:55:01;;;;;;;21.42;15.25;;;5.60;77.80;;;;;;5013616;28;20380;-72
2022/12/08 04:57:27;;;;;;;23.67;16.10;;;5.60;79.40;;;;;;5013145;28;20381;-71
2022/12/08 04:59:52;;;;;;;21.60;15.10;;;5.60;80.00;;;;;;5013005;28;20939;-72
2022/12/08 05:02:18;;;;;;;23.00;15.57;;;5.70;79.80;;;;;;5012478;28;20948;-72
2022/12/08 05:04:43;;;;;;;21.27;16.17;;;5.60;81.90;;;;;;5012439;28;20519;-72
2022/12/08 05:07:09;;;;;;;24.57;16.60;;;5.60;83.20;;;;;;5012627;28;20413;-72
2022/12/08 05:09:35;;;;;;;22.73;15.73;;;5.60;83.80;;;;;;5013032;28;20385;-72
2022/12/08 05:12:00;;;;;;;22.53;16.13;;;5.60;82.90;;;;;;5012537;28;20385;-71
2022/12/08 05:14:26;;;;;;;22.15;16.00;;;5.70;82.40;;;;;;5012794;28;20385;-71
2022/12/08 05:16:51;;;;;;;20.67;15.20;;;5.60;83.70;;;;;;5012889;28;20391;-72
2022/12/08 05:19:17;;;;;;;23.33;16.05;;;5.60;82.30;;;;;;5044921;28;20420;-71
2022/12/08 05:21:43;;;;;;;22.77;16.80;;;5.60;81.90;;;;;;5011823;28;20844;-72
2022/12/08 05:24:08;;;;;;;23.63;16.95;;;5.60;82.00;;;;;;5012254;28;20464;-71
2022/12/08 05:26:34;;;;;;;24.67;16.67;;;5.70;81.20;;;;;;5012093;28;20978;-72
2022/12/08 05:29:00;;;;;;;24.63;17.17;;;5.60;81.20;;;;;;5010785;28;20439;-72
2022/12/08 05:31:25;;;;;;;28.30;17.70;;;5.60;82.50;;;;;;5011866;28;20451;-72
2022/12/08 05:33:51;;;;;;;25.17;18.10;;;5.60;83.50;;;;;;5012496;28;20404;-72
2022/12/08 05:36:17;;;;;;;27.48;18.92;;;5.50;85.30;;;;;;5012190;28;20397;-72
2022/12/08 05:38:43;;;;;;;36.30;19.27;;;5.50;85.20;;;;;;5012176;28;20781;-71
2022/12/08 05:41:13;;;;;;;30.33;19.00;;;5.60;83.50;;;;;;5011390;28;20488;-72
2022/12/08 05:43:39;;;;;;;30.48;20.75;;;5.60;82.10;;;;;;5010812;28;20574;-72
2022/12/08 05:46:05;;;;;;;32.80;20.27;;;5.60;82.80;;;;;;5011553;28;20479;-72
2022/12/08 05:48:31;;;;;;;31.47;20.60;;;5.60;82.30;;;;;;5011739;28;20408;-71
2022/12/08 05:50:57;;;;;;;32.75;21.08;;;5.60;82.60;;;;;;5010951;28;20468;-72
2022/12/08 05:53:22;;;;;;;33.70;21.88;;;5.60;82.70;;;;;;5012293;28;20380;-70
2022/12/08 05:55:48;;;;;;;36.83;22.13;;;5.60;83.60;;;;;;5011922;28;20417;-72
2022/12/08 05:58:15;;;;;;;33.97;21.35;;;5.60;83.00;;;;;;5012446;28;20396;-72
2022/12/08 06:00:42;;;;;;;33.35;21.67;;;5.60;83.10;;;;;;5011714;28;20466;-72
2022/12/08 06:03:09;;;;;;;32.10;21.52;;;5.60;82.50;;;;;;5011637;28;20897;-72
2022/12/08 06:05:37;;;;;;;34.45;23.05;;;5.60;83.40;;;;;;5011477;28;20858;-72
2022/12/08 06:08:02;;;;;;;38.95;23.60;;;5.60;85.30;;;;;;5014300;28;20485;-71
2022/12/08 06:10:28;;;;;;;43.47;25.10;;;5.60;83.90;;;;;;5014922;28;20400;-72
2022/12/08 06:12:54;;;;;;;41.53;25.98;;;5.70;83.00;;;;;;5012308;28;20773;-72
2022/12/08 06:15:20;;;;;;;47.73;26.20;;;5.70;82.70;;;;;;5011315;28;20488;-71
2022/12/08 06:17:45;;;;;;;41.53;26.93;;;5.70;82.70;;;;;;5011761;28;20519;-72
2022/12/08 06:20:11;;;;;;;41.77;27.07;;;5.60;84.50;;;;;;5013051;28;20472;-72
2022/12/08 06:22:36;;;;;;;44.10;27.30;;;5.60;86.00;;;;;;5011719;28;20424;-72
2022/12/08 06:25:03;;;;;;;43.53;27.63;;;5.50;85.20;;;;;;5012543;28;20838;-72
2022/12/08 06:27:29;;;;;;;45.30;26.15;;;5.60;84.00;;;;;;5012825;28;20424;-71
2022/12/08 06:29:54;;;;;;;41.65;26.33;;;5.60;82.90;;;;;;5015751;28;20387;-71
2022/12/08 06:32:20;;;;;;;38.13;24.15;;;5.50;84.70;;;;;;5015639;28;20400;-71
2022/12/08 06:34:46;;;;;;;39.90;24.23;;;5.50;84.80;;;;;;5015030;28;20673;-71
2022/12/08 06:37:11;;;;;;;38.00;23.60;;;5.50;84.60;;;;;;5016700;28;20473;-71
2022/12/08 06:39:37;;;;;;;36.70;23.97;;;5.50;83.90;;;;;;5018359;28;20941;-71
2022/12/08 06:44:47;;;;;;;36.47;23.25;;;5.40;86.40;;;;;;5014318;28;20410;-71
2022/12/08 06:47:12;;;;;;;35.67;24.00;;;5.40;85.40;;;;;;5011832;28;20400;-71
2022/12/08 06:49:38;;;;;;;35.17;23.60;;;5.40;86.70;;;;;;5011145;28;20393;-72
2022/12/08 06:52:04;;;;;;;34.40;22.40;;;5.50;85.10;;;;;;5010132;28;20849;-72
2022/12/08 06:54:29;;;;;;;35.00;22.40;;;5.40;83.60;;;;;;5010759;28;20385;-71
2022/12/08 06:56:55;;;;;;;37.50;22.85;;;5.40;84.80;;;;;;5011847;28;20393;-72
2022/12/08 06:59:21;;;;;;;35.88;23.15;;;5.40;84.20;;;;;;5011280;28;20385;-72
2022/12/08 07:01:46;;;;;;;34.40;22.23;;;5.40;86.00;;;;;;5010398;28;20385;-72
2022/12/08 07:04:12;;;;;;;36.25;23.35;;;5.40;83.30;;;;;;5011674;28;20780;-71
2022/12/08 07:06:37;;;;;;;36.33;22.70;;;5.40;85.50;;;;;;5014394;28;20472;-72
2022/12/08 07:09:03;;;;;;;33.97;22.50;;;5.40;83.60;;;;;;5013443;28;20404;-73
2022/12/08 07:11:28;;;;;;;35.77;23.60;;;5.40;83.00;;;;;;5010242;28;20392;-71
2022/12/08 07:13:55;;;;;;;37.37;22.73;;;5.40;84.20;;;;;;5010831;28;20909;-71
2022/12/08 07:16:21;;;;;;;32.80;22.00;;;5.40;85.90;;;;;;5011507;28;20393;-72
2022/12/08 07:18:47;;;;;;;32.88;21.10;;;5.40;85.50;;;;;;5011926;28;20393;-71
2022/12/08 07:21:16;;;;;;;31.30;21.43;;;5.40;83.40;;;;;;5012510;28;20866;-72
2022/12/08 07:23:44;;;;;;;31.25;21.42;;;5.40;83.10;;;;;;5017784;28;20401;-73
2022/12/08 07:26:11;;;;;;;33.78;21.00;;;5.40;81.50;;;;;;5017707;28;20387;-72
2022/12/08 07:28:38;;;;;;;32.65;21.40;;;5.30;81.90;;;;;;5011480;28;20454;-72
2022/12/08 07:31:05;;;;;;;30.88;21.50;;;5.30;83.70;;;;;;5011187;28;20420;-72
2022/12/08 07:33:31;;;;;;;32.70;20.52;;;5.30;82.40;;;;;;5012620;28;20389;-72
2022/12/08 07:36:00;;;;;;;32.58;21.40;;;5.20;81.30;;;;;;5012756;28;20404;-71
2022/12/08 07:38:26;;;;;;;34.53;23.30;;;5.20;82.40;;;;;;5012350;28;20396;-72
2022/12/08 07:40:52;;;;;;;37.83;25.40;;;5.10;85.70;;;;;;5011458;28;20396;-74
2022/12/08 07:43:18;;;;;;;35.92;23.55;;;5.10;89.60;;;;;;5010982;28;20817;-71
2022/12/08 07:45:44;;;;;;;37.13;24.35;;;5.10;89.00;;;;;;5010134;28;20392;-71
2022/12/08 07:48:10;;;;;;;33.53;21.30;;;5.10;86.90;;;;;;5010373;28;20404;-72
2022/12/08 07:50:36;;;;;;;29.15;18.90;;;5.10;84.60;;;;;;5010368;28;20389;-72
2022/12/08 07:53:01;;;;;;;30.75;19.48;;;5.10;84.10;;;;;;5010080;28;20388;-73
2022/12/08 07:55:27;;;;;;;30.97;19.50;;;5.00;84.00;;;;;;5010170;28;20421;-72
2022/12/08 07:57:53;;;;;;;26.33;19.40;;;5.00;85.30;;;;;;5010085;28;20974;-71
2022/12/08 08:00:19;;;;;;;29.80;19.55;;;5.00;84.40;;;;;;5010612;28;20411;-71
2022/12/08 08:02:45;;;;;;;32.58;19.55;;;5.10;86.50;;;;;;5041105;28;20400;-71
2022/12/08 08:05:11;;;;;;;30.35;19.88;;;5.10;85.30;;;;;;5010231;28;20480;-72
2022/12/08 08:07:38;;;;;;;31.10;19.58;;;5.10;83.80;;;;;;5013748;28;20413;-72
2022/12/08 08:10:05;;;;;;;28.80;19.65;;;5.10;82.50;;;;;;5013526;28;20949;-70
2022/12/08 08:12:31;;;;;;;33.37;20.07;;;5.10;81.10;;;;;;5013083;28;20420;-72
2022/12/08 08:14:56;;;;;;;32.42;20.73;;;5.10;82.30;;;;;;5045897;28;20889;-71
2022/12/08 08:17:22;;;;;;;32.15;19.60;;;5.10;83.30;;;;;;5013935;28;20439;-72
2022/12/08 08:19:48;;;;;;;29.03;19.53;;;5.10;82.50;;;;;;5014229;28;20459;-71
2022/12/08 08:22:13;;;;;;;35.90;19.47;;;5.00;82.30;;;;;;5013665;28;20392;-70
2022/12/08 08:24:39;;;;;;;28.83;19.60;;;5.10;82.70;;;;;;5013796;28;20400;-72
2022/12/08 08:27:04;;;;;;;30.63;21.00;;;5.10;82.60;;;;;;5013794;28;20408;-72
2022/12/08 08:29:30;;;;;;;30.03;20.30;;;5.00;84.20;;;;;;5046718;28;20396;-71
2022/12/08 08:31:55;;;;;;;29.60;18.50;;;5.00;86.00;;;;;;5014440;28;20876;-70
2022/12/08 08:34:21;;;;;;;31.47;19.93;;;5.00;82.00;;;;;;5014063;28;20396;-72
2022/12/08 08:36:46;;;;;;;30.43;19.77;;;5.00;81.70;;;;;;5013965;28;20404;-73
2022/12/08 08:39:12;;;;;;;31.60;20.80;;;4.90;84.60;;;;;;5013946;28;20399;-72
2022/12/08 08:41:38;;;;;;;35.28;22.20;;;5.00;85.00;;;;;;5012738;28;20781;-72
2022/12/08 08:44:04;;;;;;;34.10;21.80;;;5.00;88.00;;;;;;5013276;28;20432;-72
2022/12/08 08:46:29;;;;;;;38.97;22.33;;;5.00;86.80;;;;;;5013012;28;20466;-71
2022/12/08 08:48:55;;;;;;;35.15;22.58;;;5.00;89.30;;;;;;5013270;28;20397;-72
2022/12/08 08:51:21;;;;;;;38.70;23.75;;;5.10;88.70;;;;;;5012538;28;20818;-71
2022/12/08 08:53:47;;;;;;;40.40;24.70;;;5.10;90.50;;;;;;5014634;28;20439;-72
2022/12/08 08:56:14;;;;;;;38.53;24.33;;;5.20;87.60;;;;;;5014478;28;20434;-72
2022/12/08 08:58:40;;;;;;;39.13;23.85;;;5.20;88.20;;;;;;5045830;28;20407;-71
2022/12/08 09:01:06;;;;;;;37.60;24.30;;;5.20;88.10;;;;;;5045400;28;20447;-72
2022/12/08 09:03:32;;;;;;;41.15;24.83;;;5.20;85.80;;;;;;5014101;28;20392;-72
2022/12/08 09:05:58;;;;;;;41.00;25.60;;;5.20;85.50;;;;;;5014908;28;20744;-70
2022/12/08 09:08:24;;;;;;;47.13;26.60;;;5.20;87.10;;;;;;5013505;28;20734;-72
2022/12/08 09:10:50;;;;;;;44.83;27.02;;;5.20;85.10;;;;;;5014530;28;20391;-72
2022/12/08 09:13:15;;;;;;;49.97;26.03;;;5.30;84.70;;;;;;5012375;28;20468;-71
2022/12/08 09:15:41;;;;;;;48.97;28.80;;;5.30;83.40;;;;;;5014234;28;20380;-71
2022/12/08 09:18:06;;;;;;;46.13;27.33;;;5.30;86.30;;;;;;5014159;28;20404;-72
2022/12/08 09:20:33;;;;;;;47.33;27.57;;;5.40;85.50;;;;;;5016183;28;20905;-72
2022/12/08 09:22:59;;;;;;;45.80;25.70;;;5.40;86.10;;;;;;5018642;28;20381;-72
2022/12/08 09:25:24;;;;;;;43.40;25.20;;;5.50;83.10;;;;;;5014384;28;20466;-72
2022/12/08 09:27:50;;;;;;;42.03;24.30;;;5.50;79.80;;;;;;5013711;28;20436;-72
2022/12/08 09:30:16;;;;;;;39.73;22.67;;;5.60;78.10;;;;;;5012469;28;20407;-72
2022/12/08 09:32:41;;;;;;;43.10;25.13;;;5.60;76.40;;;;;;5012451;28;20409;-71
2022/12/08 09:35:07;;;;;;;35.30;22.33;;;5.50;79.10;;;;;;5012197;28;20398;-73
2022/12/08 09:37:33;;;;;;;38.80;23.70;;;5.60;78.60;;;;;;5012392;28;20396;-73
2022/12/08 09:39:58;;;;;;;36.37;22.40;;;5.60;76.20;;;;;;5012297;28;20389;-70
2022/12/08 09:42:43;;;;;;;39.30;23.60;;;5.60;77.70;;;;;;5011125;28;20754;-72
2022/12/08 09:45:14;;;;;;;42.92;23.73;;;5.60;77.20;;;;;;5012253;28;20381;-73
2022/12/08 09:47:52;;;;;;;39.78;22.95;;;5.60;78.50;;;;;;5015932;28;20501;-72
2022/12/08 09:50:29;;;;;;;41.08;23.38;;;5.60;78.00;;;;;;5017064;28;20542;-72
2022/12/08 09:53:40;;;;;;;37.92;22.50;;;5.60;77.80;;;;;;5013802;28;20395;-72
2022/12/08 09:56:14;;;;;;;41.50;22.23;;;5.60;77.50;;;;;;5004986;28;20466;-70
2022/12/08 09:58:52;;;;;;;35.13;21.75;;;5.60;78.60;;;;;;5015875;28;20415;-71
2022/12/08 10:01:20;;;;;;;34.23;20.67;;;5.70;78.00;;;;;;5014083;28;20416;-71
2022/12/08 10:03:46;;;;;;;33.05;20.60;;;5.70;75.80;;;;;;5015852;28;20392;-71
2022/12/08 10:06:50;;;;;;;31.55;19.50;;;5.70;73.80;;;;;;5013330;28;20381;-72
2022/12/08 10:09:40;;;;;;;33.90;19.60;;;5.70;72.80;;;;;;5005855;28;20457;-72
2022/12/08 10:12:25;;;;;;;35.92;19.67;;;5.60;73.80;;;;;;5047446;28;20866;-72
2022/12/08 10:15:04;;;;;;;37.55;21.25;;;5.60;76.20;;;;;;5020845;28;20486;-72
2022/12/08 10:17:34;;;;;;;37.15;20.38;;;5.60;77.30;;;;;;5051592;28;20395;-71
2022/12/08 10:20:13;;;;;;;29.90;18.63;;;5.70;76.10;;;;;;5045524;28;20705;-71
2022/12/08 10:22:39;;;;;;;30.33;19.33;;;5.70;73.40;;;;;;5012747;28;20396;-72
2022/12/08 10:25:15;;;;;;;31.93;19.13;;;5.70;75.50;;;;;;5011425;28;20388;-71
2022/12/08 10:27:40;;;;;;;33.00;18.65;;;5.70;76.50;;;;;;5044848;28;20898;-72
2022/12/08 10:30:12;;;;;;;27.70;17.27;;;5.70;73.70;;;;;;5011312;28;20400;-73
2022/12/08 10:32:39;;;;;;;29.07;17.50;;;5.70;74.10;;;;;;5010921;28;20995;-72
2022/12/08 10:35:11;;;;;;;31.52;18.48;;;5.70;74.70;;;;;;5013009;28;20462;-72
2022/12/08 10:37:37;;;;;;;34.30;17.08;;;5.80;76.10;;;;;;5012076;28;20407;-72
2022/12/08 10:40:15;;;;;;;27.95;18.20;;;5.70;77.20;;;;;;5011712;28;20395;-72
2022/12/08 10:42:55;;;;;;;26.40;17.90;;;5.80;74.10;;;;;;5011018;28;20388;-72
2022/12/08 10:45:29;;;;;;;23.85;16.42;;;5.80;75.90;;;;;;5043258;28;20453;-72
2022/12/08 10:48:01;;;;;;;30.17;17.20;;;5.80;74.30;;;;;;5011199;28;20542;-71
2022/12/08 10:50:51;;;;;;;29.77;18.10;;;5.80;73.70;;;;;;5011524;28;20399;-72
2022/12/08 10:53:24;;;;;;;31.33;18.30;;;5.80;72.20;;;;;;5010876;28;20472;-69
2022/12/08 10:56:06;;;;;;;31.40;17.30;;;5.90;72.20;;;;;;5010935;28;20468;-72
2022/12/08 10:58:43;;;;;;;27.58;17.17;;;6.00;73.20;;;;;;5010884;28;20391;-71
2022/12/08 11:01:33;;;;;;;32.50;17.40;;;6.00;71.80;;;;;;5010135;28;20461;-72
2022/12/08 11:04:01;;;;;;;33.00;16.90;;;6.00;70.40;;;;;;5010400;28;20435;-70
2022/12/08 11:06:31;;;;;;;26.10;17.43;;;6.10;70.90;;;;;;5010146;28;20395;-72
2022/12/08 11:09:00;;;;;;;30.88;18.42;;;6.10;70.20;;;;;;5010477;28;20393;-71
2022/12/08 11:11:46;;;;;;;26.95;16.83;;;6.20;70.60;;;;;;5009665;28;20792;-71
2022/12/08 11:14:25;;;;;;;27.65;17.13;;;6.40;65.40;;;;;;5010499;28;20793;-72
2022/12/08 11:16:54;;;;;;;25.73;16.70;;;6.40;65.70;;;;;;5010953;28;20746;-73
2022/12/08 11:19:24;;;;;;;29.85;17.92;;;6.40;65.90;;;;;;5010848;28;20389;-72
2022/12/08 11:21:50;;;;;;;28.40;17.13;;;6.50;63.90;;;;;;5009987;28;20397;-72
2022/12/08 11:24:15;;;;;;;31.13;17.77;;;6.50;62.40;;;;;;5011457;28;20411;-72
2022/12/08 11:26:53;;;;;;;30.23;17.13;;;6.50;62.20;;;;;;5012859;28;20447;-72
2022/12/08 11:29:20;;;;;;;32.00;18.55;;;6.50;62.40;;;;;;5012747;28;20441;-72
2022/12/08 11:31:51;;;;;;;31.08;17.08;;;6.50;62.60;;;;;;5010356;28;20822;-72
2022/12/08 11:34:32;;;;;;;27.23;17.60;;;6.50;59.80;;;;;;5012528;28;20891;-73
2022/12/08 11:36:58;;;;;;;30.73;17.65;;;6.60;62.50;;;;;;5012019;28;20477;-72
2022/12/08 11:39:27;;;;;;;31.70;19.53;;;6.60;60.00;;;;;;5013407;28;20420;-73
2022/12/08 11:41:55;;;;;;;29.55;17.25;;;6.50;64.20;;;;;;5013650;28;20403;-73
2022/12/08 11:44:46;;;;;;;32.78;17.73;;;6.50;62.10;;;;;;5013916;28;20392;-72
2022/12/08 11:47:23;;;;;;;26.20;16.47;;;6.50;62.60;;;;;;5014313;28;20471;-72
2022/12/08 11:49:56;;;;;;;26.75;16.65;;;6.50;59.40;;;;;;5014369;28;20379;-71
2022/12/08 11:52:31;;;;;;;28.98;16.50;;;6.40;59.90;;;;;;5013375;28;20405;-72
2022/12/08 11:55:15;;;;;;;26.80;15.47;;;6.40;59.70;;;;;;5013874;28;20431;-72
2022/12/08 11:57:41;;;;;;;27.88;16.92;;;6.40;59.90;;;;;;5013676;28;20390;-71
2022/12/08 12:00:13;;;;;;;27.45;15.40;;;6.40;61.20;;;;;;5014049;28;20940;-71
2022/12/08 12:02:44;;;;;;;27.83;16.50;;;6.30;60.90;;;;;;5013100;28;20422;-70
2022/12/08 12:06:02;;;;;;;27.52;15.65;;;6.30;61.70;;;;;;5012942;28;20856;-70
2022/12/08 12:08:43;;;;;;;26.15;16.20;;;6.30;59.70;;;;;;4979631;28;20410;-73
2022/12/08 12:14:46;;;;;;;26.83;15.68;;;6.30;61.60;;;;;;5013603;28;20742;-70
2022/12/08 12:17:34;;;;;;;29.65;16.60;;;6.30;63.50;;;;;;4993955;28;20873;-73
2022/12/08 12:20:08;;;;;;;28.17;16.10;;;6.30;65.10;;;;;;5013631;28;20501;-72
2022/12/08 12:22:36;;;;;;;22.65;14.48;;;6.30;65.10;;;;;;5013234;28;20387;-72
2022/12/08 12:25:02;;;;;;;27.40;15.15;;;6.50;64.80;;;;;;5013618;28;20479;-71
2022/12/08 12:27:37;;;;;;;25.27;14.30;;;6.50;61.10;;;;;;5013317;28;20797;-71
2022/12/08 12:30:06;;;;;;;28.90;13.95;;;6.50;58.00;;;;;;5013679;28;20972;-72
2022/12/08 12:32:50;;;;;;;29.10;14.82;;;6.50;57.90;;;;;;5012659;28;20392;-73
2022/12/08 12:35:37;;;;;;;28.65;16.58;;;6.60;58.40;;;;;;5013035;28;20431;-72
2022/12/08 12:41:04;;;;;;;24.10;13.20;;;6.70;61.00;;;;;;5012878;28;20382;-71
2022/12/08 12:43:35;;;;;;;23.85;14.00;;;6.90;54.60;;;;;;5013062;28;20765;-70
2022/12/08 12:46:36;;;;;;;22.23;13.80;;;7.00;53.90;;;;;;5013048;28;20789;-71
2022/12/08 12:49:39;;;;;;;22.42;13.18;;;6.80;53.80;;;;;;5013169;28;20385;-71
2022/12/08 12:52:19;;;;;;;20.75;13.27;;;6.80;52.30;;;;;;5011717;28;20743;-71
2022/12/08 12:54:48;;;;;;;21.73;14.00;;;6.50;53.60;;;;;;5044698;28;20401;-72
2022/12/08 12:57:19;;;;;;;24.58;15.02;;;6.50;56.20;;;;;;5013266;28;20381;-71
2022/12/08 12:59:51;;;;;;;23.02;13.48;;;6.40;55.70;;;;;;5013899;28;20846;-71
2022/12/08 13:02:34;;;;;;;22.17;13.63;;;6.30;56.20;;;;;;5012718;28;20870;-72
2022/12/08 13:05:09;;;;;;;22.98;13.63;;;6.40;57.00;;;;;;5012713;28;20568;-71
2022/12/08 13:07:44;;;;;;;25.73;14.30;;;6.40;54.30;;;;;;5012996;28;20547;-74